Amelia Court House, Virginia
Current Conditions -  °F | °C
As of 9:55 PM on Tuesday 21 Oct 2014 (Local Time) from KW81 Reporting Station
Overcast Overcast  
Wind Chill: 58°   Ceiling: 11000
Heat Index: 58°   Visibility: 10mi
Dew Point: 46°   Wind: 5mph
Humidity: 65%   Direction: 320°NW
Pressure: 29.92"   Gusts: NA
Location:  37.34°N, 77.98°W
Report Text: KW81 220155Z AUTO 32004KT 10SM SCT045 OVC110 14/08 A2992 RMK AO1 T01430077
Loading
Personal Weather Stations






























Interactive Weather Map
Tropical Storm Tracking
New forecast layout! Learn more

10-Day Weather Forecast

Advertisements
Track Severe Weather on mobile